createdAt,value
2022-12-09T00:00:13.674Z,30.05
2022-12-09T00:02:40.917Z,27.11
2022-12-09T00:05:08.572Z,23.54
2022-12-09T00:07:36.931Z,22.84
2022-12-09T00:10:05.220Z,25.39
2022-12-09T00:12:32.975Z,23.89
2022-12-09T00:14:59.814Z,22.65
2022-12-09T00:17:26.582Z,23.79
2022-12-09T00:19:53.688Z,22.99
2022-12-09T00:22:20.574Z,23.37
2022-12-09T00:24:47.694Z,23.15
2022-12-09T00:27:14.877Z,24.53
2022-12-09T00:29:41.690Z,22.53
2022-12-09T00:32:08.928Z,23.24
2022-12-09T00:34:36.279Z,23.53
2022-12-09T00:37:04.158Z,23.72
2022-12-09T00:39:31.016Z,22.75
2022-12-09T00:41:57.746Z,24.27
2022-12-09T00:44:24.640Z,23.56
2022-12-09T00:46:51.456Z,22.40
2022-12-09T00:49:19.030Z,22.39
2022-12-09T00:51:46.811Z,22.48
2022-12-09T00:54:14.335Z,23.36
2022-12-09T00:56:41.208Z,22.00
2022-12-09T00:59:08.443Z,23.03
2022-12-09T01:01:35.320Z,23.07
2022-12-09T01:04:03.132Z,26.08
2022-12-09T01:06:30.188Z,24.02
2022-12-09T01:08:57.552Z,24.20
2022-12-09T01:11:27.810Z,22.57
2022-12-09T01:13:57.923Z,25.50
2022-12-09T01:16:27.613Z,25.07
2022-12-09T01:18:57.441Z,22.66
2022-12-09T01:21:25.040Z,21.21
2022-12-09T01:23:52.029Z,23.51
2022-12-09T01:26:19.918Z,23.09
2022-12-09T01:28:51.296Z,22.30
2022-12-09T01:31:23.473Z,23.29
2022-12-09T01:33:51.082Z,24.74
2022-12-09T01:36:24.738Z,25.21
2022-12-09T01:38:52.072Z,25.21
2022-12-09T01:41:20.696Z,25.40
2022-12-09T01:44:16.237Z,25.11
2022-12-09T01:46:43.568Z,26.06
2022-12-09T01:49:16.053Z,26.96
2022-12-09T01:51:47.898Z,25.12
2022-12-09T01:54:16.155Z,26.65
2022-12-09T01:56:44.400Z,23.80
2022-12-09T01:59:14.596Z,24.43
2022-12-09T02:01:45.807Z,24.41
2022-12-09T02:04:12.931Z,23.10
2022-12-09T02:06:40.384Z,22.72
2022-12-09T02:09:11.110Z,23.35
2022-12-09T02:11:45.406Z,24.08
2022-12-09T02:14:15.835Z,22.73
2022-12-09T02:17:01.194Z,23.78
2022-12-09T02:19:47.040Z,23.21
2022-12-09T02:22:20.424Z,22.83
2022-12-09T02:25:21.589Z,22.29
2022-12-09T02:28:04.901Z,22.78
2022-12-09T02:30:40.449Z,22.29
2022-12-09T02:33:33.391Z,22.83
2022-12-09T02:36:05.736Z,25.61
2022-12-09T02:38:34.034Z,24.11
2022-12-09T02:41:12.532Z,23.35
2022-12-09T02:43:50.802Z,23.17
2022-12-09T02:46:24.591Z,23.37
2022-12-09T02:48:59.236Z,24.04
2022-12-09T02:51:30.945Z,25.81
2022-12-09T02:54:04.628Z,27.07
2022-12-09T02:56:35.750Z,26.51
2022-12-09T02:59:02.906Z,26.22
2022-12-09T03:01:35.655Z,25.02
2022-12-09T03:04:03.259Z,26.63
2022-12-09T03:06:44.968Z,27.52
2022-12-09T03:09:27.995Z,27.84
2022-12-09T03:11:59.645Z,26.89
2022-12-09T03:14:34.121Z,26.29
2022-12-09T03:17:23.821Z,26.57
2022-12-09T03:19:55.475Z,25.83
2022-12-09T03:22:26.502Z,25.25
2022-12-09T03:25:01.113Z,25.90
2022-12-09T03:27:39.092Z,24.46
2022-12-09T03:30:10.025Z,24.81
2022-12-09T03:32:40.622Z,24.40
2022-12-09T03:35:23.769Z,23.49
2022-12-09T03:37:53.127Z,23.39
2022-12-09T03:40:27.075Z,24.14
2022-12-09T03:42:59.127Z,24.09
2022-12-09T03:45:26.972Z,23.79
2022-12-09T03:47:54.896Z,23.21
2022-12-09T03:50:25.157Z,23.48
2022-12-09T03:52:58.883Z,24.56
2022-12-09T03:55:31.652Z,23.78
2022-12-09T03:58:01.409Z,24.26
2022-12-09T04:00:28.901Z,24.61
2022-12-09T04:02:56.319Z,23.47
2022-12-09T04:05:23.276Z,24.19
2022-12-09T04:07:50.574Z,26.24
2022-12-09T04:10:17.324Z,25.27
2022-12-09T04:12:44.061Z,24.47
2022-12-09T04:15:11.096Z,24.36
2022-12-09T04:17:37.951Z,23.47
2022-12-09T04:20:07.044Z,23.34
2022-12-09T04:22:35.370Z,23.73
2022-12-09T04:25:02.300Z,22.64
2022-12-09T04:27:29.364Z,22.77
2022-12-09T04:29:56.257Z,23.49
2022-12-09T04:32:23.802Z,27.05
2022-12-09T04:34:51.348Z,26.65
2022-12-09T04:37:18.977Z,24.76
2022-12-09T04:39:46.820Z,23.68
2022-12-09T04:42:13.689Z,23.25
2022-12-09T04:44:41.362Z,22.37
2022-12-09T04:47:08.111Z,23.13
2022-12-09T04:49:35.209Z,23.07
2022-12-09T04:52:01.941Z,23.17
2022-12-09T04:54:28.908Z,23.83
2022-12-09T04:56:55.770Z,23.52
2022-12-09T04:59:22.543Z,23.35
2022-12-09T05:01:49.604Z,23.67
2022-12-09T05:04:17.254Z,22.85
2022-12-09T05:06:44.335Z,22.66
2022-12-09T05:09:13.429Z,23.07
2022-12-09T05:11:40.551Z,23.37
2022-12-09T05:14:07.856Z,23.03
2022-12-09T05:16:35.804Z,23.03
2022-12-09T05:19:03.221Z,23.99
2022-12-09T05:21:30.835Z,23.03
2022-12-09T05:23:58.267Z,22.34
2022-12-09T05:26:25.775Z,23.49
2022-12-09T05:28:52.725Z,23.43
2022-12-09T05:31:22.967Z,23.51
2022-12-09T05:33:52.383Z,22.37
2022-12-09T05:36:24.526Z,23.45
2022-12-09T05:38:53.295Z,22.97
2022-12-09T05:41:22.239Z,22.98
2022-12-09T05:43:49.508Z,25.56
2022-12-09T05:46:17.388Z,25.04
2022-12-09T05:48:45.061Z,26.33
2022-12-09T05:51:23.872Z,25.23
2022-12-09T05:53:51.825Z,24.90
2022-12-09T05:56:20.563Z,24.10
2022-12-09T05:58:48.059Z,23.79
2022-12-09T06:01:15.584Z,25.26
2022-12-09T06:03:43.000Z,24.49
2022-12-09T06:06:14.893Z,24.57
2022-12-09T06:08:43.671Z,23.63
2022-12-09T06:11:22.008Z,25.27
2022-12-09T06:13:49.880Z,23.81
2022-12-09T06:16:19.763Z,24.10
2022-12-09T06:18:48.885Z,22.88
2022-12-09T06:21:17.720Z,24.00
2022-12-09T06:23:44.963Z,24.28
2022-12-09T06:26:18.427Z,24.31
2022-12-09T06:28:46.278Z,24.09
2022-12-09T06:31:13.883Z,23.89
2022-12-09T06:33:58.811Z,24.94
2022-12-09T06:36:29.638Z,23.88
2022-12-09T06:39:01.820Z,24.00
2022-12-09T06:41:33.416Z,24.59
2022-12-09T06:44:00.807Z,23.80
2022-12-09T06:46:29.448Z,25.04
2022-12-09T06:48:56.674Z,24.42
2022-12-09T06:51:25.364Z,24.73
2022-12-09T06:53:53.579Z,24.02
2022-12-09T06:56:21.660Z,24.60
2022-12-09T06:58:49.017Z,24.65
2022-12-09T07:01:20.009Z,24.44
2022-12-09T07:03:50.096Z,24.34
2022-12-09T07:06:29.897Z,22.97
2022-12-09T07:08:59.884Z,25.32
2022-12-09T07:11:28.189Z,25.91
2022-12-09T07:13:55.506Z,23.54
2022-12-09T07:16:23.118Z,24.81
2022-12-09T07:18:51.108Z,23.49
2022-12-09T07:21:20.130Z,24.30
2022-12-09T07:23:48.102Z,24.33
2022-12-09T07:26:16.994Z,24.40
2022-12-09T07:28:47.327Z,24.67
2022-12-09T07:31:26.598Z,23.50
2022-12-09T07:33:55.457Z,23.20
2022-12-09T07:36:26.492Z,24.31
2022-12-09T07:39:06.134Z,24.56
2022-12-09T07:41:33.867Z,24.01
2022-12-09T07:44:00.714Z,28.36
2022-12-09T07:46:28.695Z,29.71
2022-12-09T07:48:57.809Z,28.04
2022-12-09T07:51:26.032Z,27.13
2022-12-09T07:53:54.073Z,25.50
2022-12-09T07:56:24.068Z,24.41
2022-12-09T07:58:53.495Z,25.79
2022-12-09T08:01:29.204Z,24.57
2022-12-09T08:03:57.002Z,25.32
2022-12-09T08:06:26.173Z,26.18
2022-12-09T08:08:54.958Z,25.60
2022-12-09T08:11:25.270Z,25.87
2022-12-09T08:13:55.797Z,25.29
2022-12-09T08:16:24.119Z,25.69
2022-12-09T08:18:52.913Z,25.20
2022-12-09T08:21:24.101Z,27.84
2022-12-09T08:23:53.124Z,26.90
2022-12-09T08:26:23.942Z,28.14
2022-12-09T08:28:51.720Z,26.12
2022-12-09T08:31:24.453Z,27.27
2022-12-09T08:33:53.216Z,28.84
2022-12-09T08:36:25.554Z,28.37
2022-12-09T08:38:53.844Z,29.64
2022-12-09T08:41:36.783Z,29.39
2022-12-09T08:44:17.041Z,28.14
2022-12-09T08:46:47.493Z,27.29
2022-12-09T08:49:20.080Z,30.08
2022-12-09T08:51:48.659Z,30.96
2022-12-09T08:54:16.060Z,29.47
2022-12-09T08:56:47.628Z,27.79
2022-12-09T08:59:16.070Z,27.88
2022-12-09T09:01:43.053Z,30.65
2022-12-09T09:04:14.449Z,31.22
2022-12-09T09:06:44.348Z,30.87
2022-12-09T09:09:13.522Z,27.09
2022-12-09T09:11:41.501Z,26.26
2022-12-09T09:14:11.608Z,26.29
2022-12-09T09:16:42.002Z,24.11
2022-12-09T09:19:15.954Z,25.93
2022-12-09T09:21:43.179Z,26.44
2022-12-09T09:24:12.135Z,24.25
2022-12-09T09:26:42.404Z,25.75
2022-12-09T09:29:16.708Z,25.93
2022-12-09T09:31:44.956Z,28.88
2022-12-09T09:34:12.378Z,27.36
2022-12-09T09:36:40.620Z,28.95
2022-12-09T09:39:08.589Z,27.02
2022-12-09T09:41:50.902Z,26.43
2022-12-09T09:44:24.805Z,25.69
2022-12-09T09:46:53.646Z,25.86
2022-12-09T09:49:24.800Z,29.28
2022-12-09T09:51:53.465Z,27.97
2022-12-09T09:54:20.737Z,28.01
2022-12-09T09:57:00.907Z,25.65
2022-12-09T09:59:36.916Z,26.49
2022-12-09T10:02:11.606Z,25.54
2022-12-09T10:05:14.876Z,29.00
2022-12-09T10:07:44.871Z,33.43
2022-12-09T10:10:25.012Z,29.49
2022-12-09T10:13:21.260Z,28.12
2022-12-09T10:15:55.192Z,30.79
2022-12-09T10:18:29.676Z,30.73
2022-12-09T10:20:56.641Z,26.63
2022-12-09T10:23:33.386Z,28.19
2022-12-09T10:26:05.031Z,25.72
2022-12-09T10:28:40.464Z,27.68
2022-12-09T10:31:09.409Z,27.18
2022-12-09T10:33:39.088Z,26.97
2022-12-09T10:36:16.140Z,28.33
2022-12-09T10:38:43.975Z,29.34
2022-12-09T10:41:39.569Z,27.80
2022-12-09T10:44:26.257Z,26.38
2022-12-09T10:46:58.945Z,27.48
2022-12-09T10:49:26.377Z,29.84
2022-12-09T10:51:55.531Z,29.29
2022-12-09T10:54:35.021Z,30.52
2022-12-09T10:57:14.457Z,28.01
2022-12-09T10:59:59.398Z,28.19
2022-12-09T11:02:27.297Z,30.12
2022-12-09T11:04:56.100Z,26.90
2022-12-09T11:07:26.102Z,28.55
2022-12-09T11:09:59.690Z,27.49
2022-12-09T11:12:36.237Z,28.35
2022-12-09T11:15:12.794Z,27.37
2022-12-09T11:17:55.986Z,27.31
2022-12-09T11:20:28.440Z,28.72
2022-12-09T11:23:15.415Z,26.37
2022-12-09T11:25:56.429Z,27.60
2022-12-09T11:28:36.861Z,30.12
2022-12-09T11:33:59.169Z,29.51
2022-12-09T11:36:44.036Z,28.85
2022-12-09T11:39:20.241Z,28.08
2022-12-09T11:42:16.158Z,27.85
2022-12-09T11:45:05.103Z,27.32
2022-12-09T11:47:57.127Z,26.44
2022-12-09T11:50:26.036Z,28.28
2022-12-09T11:53:23.238Z,28.69
2022-12-09T11:56:04.089Z,26.81
2022-12-09T11:58:41.372Z,27.46
2022-12-09T12:01:46.515Z,28.04
2022-12-09T12:12:26.768Z,24.28
2022-12-09T12:14:56.612Z,27.68
2022-12-09T12:17:31.955Z,25.68
2022-12-09T12:19:59.509Z,25.46
2022-12-09T12:22:49.005Z,26.27
2022-12-09T12:25:59.933Z,26.91
2022-12-09T12:28:30.125Z,26.35
2022-12-09T12:31:11.757Z,25.93
2022-12-09T12:34:16.078Z,27.47
2022-12-09T12:37:00.187Z,27.48
2022-12-09T12:39:40.299Z,26.30
2022-12-09T12:42:28.656Z,25.96
2022-12-09T12:45:21.937Z,25.64
2022-12-09T12:48:07.722Z,27.26
2022-12-09T12:51:06.402Z,26.84
2022-12-09T12:53:51.361Z,26.09
2022-12-09T12:56:46.891Z,26.38
2022-12-09T12:59:41.750Z,27.41
2022-12-09T13:02:27.065Z,29.07
2022-12-09T13:05:24.267Z,25.71
2022-12-09T13:08:01.687Z,28.67
2022-12-09T13:10:46.686Z,25.25
2022-12-09T13:13:26.614Z,28.77
2022-12-09T13:15:56.970Z,28.98
2022-12-09T13:18:44.491Z,25.44
2022-12-09T13:21:13.060Z,27.79
2022-12-09T13:23:56.107Z,25.99
2022-12-09T13:26:42.270Z,25.97
2022-12-09T13:29:15.792Z,28.06
2022-12-09T13:32:07.209Z,25.32
2022-12-09T13:34:44.468Z,26.53
2022-12-09T13:37:43.508Z,29.25
2022-12-09T13:40:38.833Z,25.05
2022-12-09T13:43:27.237Z,27.44
2022-12-09T13:45:59.640Z,25.40
2022-12-09T13:48:29.593Z,25.86
2022-12-09T13:50:59.796Z,25.18
2022-12-09T13:53:31.002Z,25.90
2022-12-09T13:56:08.543Z,27.95
2022-12-09T13:59:13.848Z,27.40
2022-12-09T14:02:11.444Z,25.27
2022-12-09T14:05:06.950Z,26.59
2022-12-09T14:07:46.693Z,28.59
2022-12-09T14:10:47.760Z,29.38
2022-12-09T14:13:33.048Z,28.86
2022-12-09T14:16:17.034Z,27.58
2022-12-09T14:18:44.661Z,30.26
2022-12-09T14:21:17.952Z,26.49
2022-12-09T14:24:09.697Z,26.24
2022-12-09T14:26:45.628Z,25.80
2022-12-09T14:29:47.853Z,24.13
2022-12-09T14:32:37.304Z,24.47
2022-12-09T14:35:20.421Z,24.38
2022-12-09T14:37:52.931Z,24.09
2022-12-09T14:40:42.874Z,24.79
2022-12-09T14:43:09.611Z,24.21
2022-12-09T14:45:58.228Z,24.99
2022-12-09T14:48:28.220Z,24.62
2022-12-09T14:51:18.641Z,25.10
2022-12-09T14:53:59.203Z,25.12
2022-12-09T14:56:28.131Z,25.19
2022-12-09T14:59:00.631Z,25.95
2022-12-09T15:01:28.417Z,24.50
2022-12-09T15:03:58.067Z,25.03
2022-12-09T15:06:29.003Z,24.46
2022-12-09T15:08:58.768Z,25.03
2022-12-09T15:11:34.380Z,24.21
2022-12-09T15:14:27.276Z,25.77
2022-12-09T15:16:59.275Z,25.18
2022-12-09T15:19:59.269Z,25.53
2022-12-09T15:22:27.362Z,24.72
2022-12-09T15:24:54.539Z,24.23
2022-12-09T15:27:24.710Z,24.12
2022-12-09T15:29:53.101Z,24.31
2022-12-09T15:32:27.304Z,24.25
2022-12-09T15:34:54.566Z,23.93
2022-12-09T15:37:28.884Z,23.53
2022-12-09T15:40:08.546Z,24.50
2022-12-09T15:42:38.688Z,24.51
2022-12-09T15:45:23.837Z,24.79
2022-12-09T15:48:18.880Z,24.21
2022-12-09T15:50:48.951Z,24.05
2022-12-09T15:53:35.104Z,24.56
2022-12-09T15:56:06.069Z,25.12
2022-12-09T15:58:38.541Z,25.22
2022-12-09T16:01:06.036Z,25.55
2022-12-09T16:03:35.352Z,23.93
2022-12-09T16:06:07.812Z,24.17
2022-12-09T16:08:44.845Z,24.00
2022-12-09T16:11:13.118Z,24.16
2022-12-09T16:14:00.172Z,24.91
2022-12-09T16:16:52.545Z,24.47
2022-12-09T16:19:31.403Z,25.57
2022-12-09T16:22:05.378Z,25.10
2022-12-09T16:24:57.907Z,24.56
2022-12-09T16:27:26.149Z,25.06
2022-12-09T16:29:59.381Z,25.23
2022-12-09T16:32:31.602Z,24.03
2022-12-09T16:35:33.999Z,24.10
2022-12-09T16:38:09.410Z,24.89
2022-12-09T16:40:45.203Z,24.32
2022-12-09T16:43:22.037Z,25.00
2022-12-09T16:46:19.513Z,24.84
2022-12-09T16:48:49.252Z,24.91
2022-12-09T16:51:25.717Z,24.81
2022-12-09T16:53:54.267Z,24.39
2022-12-09T16:56:29.737Z,24.24
2022-12-09T16:58:59.319Z,26.03
2022-12-09T17:01:34.860Z,25.61
2022-12-09T17:04:14.592Z,24.68
2022-12-09T17:06:41.394Z,24.07
2022-12-09T17:09:08.186Z,26.16
2022-12-09T17:11:35.001Z,24.65
2022-12-09T17:14:02.668Z,25.75
2022-12-09T17:16:30.340Z,24.19
2022-12-09T17:18:57.158Z,23.67
2022-12-09T17:21:25.312Z,24.45
2022-12-09T17:23:52.549Z,24.81
2022-12-09T17:26:20.988Z,24.24
2022-12-09T17:28:49.457Z,23.95
2022-12-09T17:31:22.123Z,23.71
2022-12-09T17:33:49.879Z,22.94
2022-12-09T17:36:18.293Z,24.00
2022-12-09T17:38:47.037Z,23.89
2022-12-09T17:41:19.116Z,26.67
2022-12-09T17:43:46.420Z,24.75
2022-12-09T17:46:15.127Z,24.73
2022-12-09T17:48:42.139Z,24.13
2022-12-09T17:51:11.859Z,24.38
2022-12-09T17:53:40.267Z,23.98
2022-12-09T17:56:17.084Z,23.70
2022-12-09T17:58:45.562Z,24.17
2022-12-09T18:01:20.035Z,27.24
2022-12-09T18:03:56.445Z,24.37
2022-12-09T18:06:27.085Z,24.65
2022-12-09T18:08:54.665Z,23.74
2022-12-09T18:11:22.397Z,24.26
2022-12-09T18:13:50.495Z,25.08
2022-12-09T18:16:17.771Z,25.45
2022-12-09T18:18:45.590Z,24.43
2022-12-09T18:21:15.918Z,24.01
2022-12-09T18:23:44.393Z,24.53
2022-12-09T18:26:14.337Z,23.91
2022-12-09T18:28:41.415Z,24.50
2022-12-09T18:31:14.486Z,25.52
2022-12-09T18:33:42.291Z,23.66
2022-12-09T18:36:17.656Z,23.54
2022-12-09T18:38:45.891Z,23.69
2022-12-09T18:41:12.630Z,24.25
2022-12-09T18:43:41.360Z,23.63
2022-12-09T18:46:11.218Z,23.12
2022-12-09T18:48:38.664Z,25.03
2022-12-09T18:51:08.852Z,23.88
2022-12-09T18:53:35.968Z,24.40
2022-12-09T18:56:05.193Z,25.24
2022-12-09T18:58:57.898Z,25.26
2022-12-09T19:01:24.671Z,24.92
2022-12-09T19:03:54.212Z,27.38
2022-12-09T19:06:26.949Z,27.61
2022-12-09T19:08:58.517Z,25.95
2022-12-09T19:11:32.922Z,27.14
2022-12-09T19:14:01.785Z,24.42
2022-12-09T19:16:31.249Z,24.17
2022-12-09T19:19:01.470Z,23.95
2022-12-09T19:21:32.779Z,23.16
2022-12-09T19:24:01.557Z,24.88
2022-12-09T19:26:31.681Z,24.22
2022-12-09T19:29:01.322Z,23.27
2022-12-09T19:31:31.492Z,23.15
2022-12-09T19:34:05.463Z,24.39
2022-12-09T19:36:34.285Z,24.06
2022-12-09T19:39:04.292Z,26.78
2022-12-09T19:41:32.627Z,25.33
2022-12-09T19:44:01.821Z,23.70
2022-12-09T19:46:30.695Z,22.45
2022-12-09T19:48:57.591Z,23.04
2022-12-09T19:51:26.205Z,22.96
2022-12-09T19:53:55.129Z,22.58
2022-12-09T19:56:22.333Z,22.12
2022-12-09T19:58:49.690Z,22.43
2022-12-09T20:01:38.504Z,23.45
2022-12-09T20:04:46.478Z,23.49
2022-12-09T20:06:56.789Z,25.40
2022-12-09T20:09:25.159Z,23.61
2022-12-09T20:11:53.480Z,24.46
2022-12-09T20:14:20.612Z,24.22
2022-12-09T20:16:47.365Z,24.94
2022-12-09T20:19:14.184Z,26.26
2022-12-09T20:21:41.099Z,23.59
2022-12-09T20:24:09.197Z,24.21
2022-12-09T20:26:37.899Z,23.89
2022-12-09T20:29:07.669Z,24.55
2022-12-09T20:31:36.963Z,23.68
2022-12-09T20:34:06.985Z,23.03
2022-12-09T20:36:36.900Z,23.07
2022-12-09T20:39:11.224Z,22.80
2022-12-09T20:41:39.396Z,23.48
2022-12-09T20:44:06.228Z,23.99
2022-12-09T20:46:33.889Z,24.09
2022-12-09T20:49:02.179Z,23.50
2022-12-09T20:51:32.926Z,23.16
2022-12-09T20:54:00.923Z,24.76
2022-12-09T20:56:29.326Z,27.08
2022-12-09T20:58:57.648Z,26.75
2022-12-09T21:01:31.363Z,24.37
2022-12-09T21:04:01.577Z,23.00
2022-12-09T21:06:32.572Z,23.06
2022-12-09T21:09:22.026Z,23.64
2022-12-09T21:11:49.845Z,23.98
2022-12-09T21:14:18.719Z,22.85
2022-12-09T21:16:47.612Z,23.28
2022-12-09T21:19:16.410Z,22.99
2022-12-09T21:21:48.529Z,23.84
2022-12-09T21:24:16.540Z,24.89
2022-12-09T21:26:44.007Z,24.41
2022-12-09T21:29:12.338Z,23.23
2022-12-09T21:31:44.295Z,22.67
2022-12-09T21:34:11.250Z,23.92
2022-12-09T21:36:40.835Z,24.01
2022-12-09T21:39:09.245Z,24.45
2022-12-09T21:41:37.611Z,24.03
2022-12-09T21:44:06.644Z,24.61
2022-12-09T21:46:36.770Z,24.00
2022-12-09T21:49:06.416Z,24.06
2022-12-09T21:51:35.045Z,28.19
2022-12-09T21:54:03.042Z,24.33
2022-12-09T21:56:32.489Z,24.68
2022-12-09T21:58:59.947Z,25.74
2022-12-09T22:01:28.221Z,25.26
2022-12-09T22:03:56.576Z,25.63
2022-12-09T22:06:23.433Z,24.31
2022-12-09T22:08:51.103Z,24.59
2022-12-09T22:11:24.321Z,25.05
2022-12-09T22:13:52.193Z,24.92
2022-12-09T22:16:22.228Z,24.00
2022-12-09T22:18:50.374Z,24.06
2022-12-09T22:21:27.801Z,24.64
2022-12-09T22:23:57.646Z,23.92
2022-12-09T22:26:25.468Z,24.68
2022-12-09T22:28:53.484Z,26.11
2022-12-09T22:31:23.852Z,24.21
2022-12-09T22:33:53.515Z,23.93
2022-12-09T22:36:21.938Z,23.82
2022-12-09T22:38:49.032Z,23.03
2022-12-09T22:41:18.335Z,22.87
2022-12-09T22:43:51.417Z,23.27
2022-12-09T22:46:29.806Z,23.53
2022-12-09T22:49:02.413Z,23.06
2022-12-09T22:51:33.035Z,23.21
2022-12-09T22:54:02.148Z,24.00
2022-12-09T22:56:28.828Z,23.98
2022-12-09T22:58:55.795Z,24.06
2022-12-09T23:01:28.558Z,24.11
2022-12-09T23:03:56.552Z,25.36
2022-12-09T23:06:25.002Z,26.65
2022-12-09T23:08:52.392Z,24.98
2022-12-09T23:11:24.747Z,24.46
2022-12-09T23:13:52.469Z,23.84
2022-12-09T23:16:22.385Z,24.72
2022-12-09T23:18:50.028Z,24.87
2022-12-09T23:21:23.993Z,24.27
2022-12-09T23:23:56.485Z,23.40
2022-12-09T23:26:27.934Z,24.57
2022-12-09T23:28:57.032Z,24.40
2022-12-09T23:31:26.849Z,25.77
2022-12-09T23:33:54.088Z,24.13
2022-12-09T23:36:24.081Z,24.43
2022-12-09T23:38:52.800Z,24.29
2022-12-09T23:41:21.920Z,24.15
2022-12-09T23:43:49.808Z,23.96
2022-12-09T23:46:22.749Z,23.78
2022-12-09T23:48:51.289Z,26.71
2022-12-09T23:51:22.797Z,24.71
2022-12-09T23:53:51.259Z,24.52
2022-12-09T23:56:22.274Z,25.31
2022-12-09T23:58:54.261Z,24.78
